Time;durP1;ratioP1;P1;durP2;ratioP2;P2;SDS_P1;SDS_P2;PMS_P1;PMS_P2;Temp;Humidity;BMP_temperature;BMP_pressure;BME280_temperature;BME280_humidity;BME280_pressure;Samples;Min_cycle;Max_cycle;Signal;HPM_P1;HPM_P2
2021/05/25 04:16:08;;;;;;;2.85;1.00;;;;;;;8.06;72.68;98801.88;5553951;23;20055;-68
2021/05/25 04:18:34;;;;;;;4.13;1.25;;;;;;;8.07;71.99;98793.28;4935075;29;20040;-75
2021/05/25 04:21:00;;;;;;;0.90;0.90;;;;;;;8.24;72.25;98786.25;4935006;29;20131;-75
2021/05/25 04:23:25;;;;;;;2.20;1.00;;;;;;;8.17;71.57;98800.94;4934950;29;20138;-73
2021/05/25 04:25:51;;;;;;;1.95;1.10;;;;;;;8.17;72.57;98797.47;4917600;29;20028;-73
2021/05/25 04:28:16;;;;;;;4.15;1.30;;;;;;;8.16;71.99;98798.34;4934716;29;20055;-75
2021/05/25 04:30:43;;;;;;;6.32;1.70;;;;;;;8.17;71.63;98800.06;4883609;29;20071;-75
2021/05/25 04:33:08;;;;;;;2.90;1.10;;;;;;;8.12;71.68;98812.16;4896254;29;20032;-70
2021/05/25 04:35:34;;;;;;;6.15;1.33;;;;;;;8.10;71.64;98803.56;4896155;29;20028;-70
2021/05/25 04:37:59;;;;;;;1.05;0.90;;;;;;;8.10;71.86;98819.06;4896155;29;20032;-69
2021/05/25 04:40:25;;;;;;;2.50;0.80;;;;;;;8.12;72.05;98812.16;4896107;29;20470;-70
2021/05/25 04:42:51;;;;;;;1.75;0.88;;;;;;;8.19;71.85;98821.56;4896397;29;20044;-70
2021/05/25 04:45:17;;;;;;;2.00;0.80;;;;;;;8.09;70.80;98822.50;4895948;29;20072;-70
2021/05/25 04:47:42;;;;;;;2.63;0.90;;;;;;;8.14;71.24;98816.44;4895973;29;20028;-74
2021/05/25 04:50:10;;;;;;;3.08;0.98;;;;;;;8.20;70.19;98820.69;4896109;29;20111;-74
2021/05/25 04:52:36;;;;;;;2.28;0.90;;;;;;;8.30;70.34;98818.91;4895554;29;20028;-74
2021/05/25 04:55:04;;;;;;;2.25;0.98;;;;;;;8.36;69.59;98818.84;4895506;29;20028;-70
2021/05/25 04:57:31;;;;;;;1.95;0.82;;;;;;;8.43;68.67;98816.25;4893388;29;20032;-70
2021/05/25 04:59:56;;;;;;;2.17;0.80;;;;;;;8.43;68.83;98829.16;4891334;29;20470;-73
2021/05/25 05:02:21;;;;;;;0.70;0.70;;;;;;;8.49;68.85;98823.94;4889938;29;20035;-74
2021/05/25 05:04:47;;;;;;;1.65;0.82;;;;;;;8.66;68.33;98830.69;4892171;29;20431;-74
2021/05/25 05:07:12;;;;;;;0.75;0.75;;;;;;;8.77;67.83;98834.00;4888241;29;20116;-74
2021/05/25 05:09:38;;;;;;;1.65;0.70;;;;;;;8.93;67.45;98830.38;4888943;29;20386;-73
2021/05/25 05:12:04;;;;;;;2.75;1.10;;;;;;;9.04;67.38;98832.00;4895564;29;20116;-70
2021/05/25 05:14:29;;;;;;;1.02;0.70;;;;;;;9.04;66.23;98838.00;4895163;29;20084;-69
2021/05/25 05:16:54;;;;;;;1.52;1.40;;;;;;;9.07;66.37;98837.13;4894643;29;20036;-74
2021/05/25 05:19:20;;;;;;;1.13;0.68;;;;;;;9.06;65.93;98840.59;4896068;29;20020;-75
2021/05/25 05:21:45;;;;;;;1.63;0.88;;;;;;;9.13;66.75;98842.22;4894605;29;20025;-74
2021/05/25 05:24:11;;;;;;;1.10;0.70;;;;;;;9.18;65.87;98850.78;4898594;29;20045;-74
2021/05/25 05:26:36;;;;;;;2.08;0.77;;;;;;;9.19;65.90;98852.53;4898300;29;20055;-74
2021/05/25 05:29:02;;;;;;;2.78;0.80;;;;;;;9.25;65.31;98847.28;4899480;29;20111;-74
2021/05/25 05:31:27;;;;;;;2.13;0.77;;;;;;;9.32;66.12;98848.91;4892674;29;20482;-74
2021/05/25 05:33:52;;;;;;;1.95;0.80;;;;;;;9.22;65.30;98858.50;4892047;29;20032;-75
2021/05/25 05:36:18;;;;;;;1.92;0.80;;;;;;;9.24;65.36;98861.09;4894130;29;20155;-70
2021/05/25 05:38:45;;;;;;;1.30;0.80;;;;;;;9.34;65.20;98857.50;4895581;29;20048;-70
2021/05/25 05:41:11;;;;;;;3.22;0.90;;;;;;;9.43;65.25;98869.50;4899116;29;20051;-70
2021/05/25 05:43:36;;;;;;;2.78;0.80;;;;;;;9.52;65.33;98867.66;4893824;29;20060;-70
2021/05/25 05:46:02;;;;;;;5.32;0.90;;;;;;;9.42;64.57;98866.00;4899135;29;20017;-70
2021/05/25 05:48:27;;;;;;;2.83;0.80;;;;;;;9.37;64.89;98872.97;4898940;29;20092;-70
2021/05/25 05:50:53;;;;;;;2.05;0.75;;;;;;;9.62;64.87;98875.25;4882180;29;20028;-70
2021/05/25 05:53:20;;;;;;;1.58;0.85;;;;;;;9.86;64.44;98871.50;4898919;29;20031;-70
2021/05/25 05:55:46;;;;;;;1.88;0.60;;;;;;;9.78;63.76;98880.25;4891330;29;20474;-70
2021/05/25 05:58:11;;;;;;;1.95;0.60;;;;;;;9.66;63.09;98874.34;4893479;29;20501;-70
2021/05/25 06:00:38;;;;;;;2.72;0.70;;;;;;;9.75;63.89;98875.09;4892681;29;20033;-70
2021/05/25 06:03:04;;;;;;;0.82;0.70;;;;;;;9.99;63.92;98873.91;4898840;29;20031;-70
2021/05/25 06:05:30;;;;;;;2.40;0.90;;;;;;;9.95;63.92;98881.72;4884915;29;20096;-70
2021/05/25 06:07:55;;;;;;;0.63;0.60;;;;;;;10.20;63.28;98867.56;4895554;29;20115;-70
2021/05/25 06:10:20;;;;;;;0.77;0.77;;;;;;;10.23;62.68;98871.84;4898652;29;20024;-70
2021/05/25 06:12:46;;;;;;;0.80;0.60;;;;;;;10.34;62.13;98885.50;4881271;29;20024;-70
2021/05/25 06:15:12;;;;;;;4.20;0.70;;;;;;;10.23;61.48;98877.00;4896839;29;20025;-70
2021/05/25 06:17:38;;;;;;;7.00;0.88;;;;;;;10.30;61.65;98876.09;4897855;29;20107;-70
2021/05/25 06:20:07;;;;;;;2.25;1.00;;;;;;;10.28;62.69;98880.44;4897396;29;20043;-70
2021/05/25 06:22:33;;;;;;;2.72;0.85;;;;;;;10.43;61.37;98879.31;4898156;29;20017;-70
2021/05/25 06:24:59;;;;;;;2.10;0.90;;;;;;;10.60;59.07;98872.16;4898147;29;20037;-70
2021/05/25 06:27:25;;;;;;;1.13;0.75;;;;;;;10.67;59.33;98872.91;4897743;29;20031;-70
2021/05/25 06:29:50;;;;;;;1.98;0.88;;;;;;;10.64;58.72;98872.97;4897713;29;20025;-70
2021/05/25 06:32:15;;;;;;;1.70;0.82;;;;;;;10.47;59.17;98876.66;4894902;29;20024;-71
2021/05/25 06:34:41;;;;;;;1.23;0.70;;;;;;;10.33;59.27;98875.19;4896794;29;20032;-70
2021/05/25 06:37:06;;;;;;;5.25;1.67;;;;;;;10.31;59.65;98880.38;4897887;29;20485;-70
2021/05/25 06:39:31;;;;;;;1.33;0.80;;;;;;;10.52;58.89;98882.63;4897893;29;20031;-70
2021/05/25 06:41:57;;;;;;;4.93;2.05;;;;;;;10.50;57.60;98889.59;4893940;29;20023;-70
2021/05/25 06:44:22;;;;;;;1.10;0.70;;;;;;;10.22;58.29;98889.13;4880709;29;20028;-70
2021/05/25 06:46:47;;;;;;;0.75;0.70;;;;;;;10.20;58.82;98888.28;4897416;29;20041;-71
2021/05/25 06:49:13;;;;;;;0.98;0.70;;;;;;;10.45;59.00;98891.41;4897771;29;20035;-74
2021/05/25 06:51:38;;;;;;;1.10;0.80;;;;;;;10.69;58.78;98891.88;4897530;29;20036;-74
2021/05/25 06:54:06;;;;;;;1.23;1.10;;;;;;;10.51;59.40;98898.22;4896852;29;20028;-74
2021/05/25 06:56:32;;;;;;;1.85;0.80;;;;;;;10.75;58.66;98896.94;4897198;29;20016;-74
2021/05/25 06:58:57;;;;;;;13.50;9.05;;;;;;;11.91;56.21;98879.19;4897555;29;20020;-70
2021/05/25 07:01:23;;;;;;;4.00;1.25;;;;;;;12.43;54.72;98885.78;4897542;29;20043;-71
2021/05/25 07:03:51;;;;;;;5.00;0.82;;;;;;;12.20;55.16;98890.66;4897386;29;20028;-71
2021/05/25 07:06:17;;;;;;;1.88;0.80;;;;;;;11.59;56.47;98891.03;4896009;29;20468;-70
2021/05/25 07:08:42;;;;;;;1.00;0.75;;;;;;;11.56;53.43;98898.06;4897511;29;20107;-70
2021/05/25 07:11:08;;;;;;;0.95;0.70;;;;;;;11.25;54.26;98883.06;4897364;29;20031;-70
2021/05/25 07:13:33;;;;;;;3.00;1.40;;;;;;;11.36;55.56;98898.41;4897202;29;20367;-71
2021/05/25 07:15:59;;;;;;;1.38;0.82;;;;;;;11.38;55.26;98891.47;4896690;29;20029;-75
2021/05/25 07:18:24;;;;;;;3.45;0.63;;;;;;;11.14;54.71;98904.91;4896306;29;20036;-75
2021/05/25 07:20:49;;;;;;;2.67;1.40;;;;;;;11.01;56.25;98894.75;4896992;29;20031;-75
2021/05/25 07:23:15;;;;;;;4.30;1.00;;;;;;;10.76;56.13;98898.66;4879609;29;20021;-75
2021/05/25 07:25:40;;;;;;;4.05;1.13;;;;;;;10.80;56.16;98890.81;4897081;29;20103;-75
2021/05/25 07:28:07;;;;;;;1.45;0.88;;;;;;;10.88;55.82;98893.28;4896378;29;20079;-75
2021/05/25 07:30:32;;;;;;;1.40;0.90;;;;;;;11.11;55.96;98900.63;4896541;29;20079;-75
2021/05/25 07:32:58;;;;;;;4.38;1.00;;;;;;;11.22;55.26;98893.53;4893931;29;20521;-75
2021/05/25 07:35:23;;;;;;;1.80;1.30;;;;;;;11.64;54.31;98884.91;4896857;29;20025;-75
2021/05/25 07:37:49;;;;;;;6.65;1.00;;;;;;;12.15;52.09;98882.13;4896712;29;20027;-74
2021/05/25 07:40:16;;;;;;;2.25;0.90;;;;;;;12.58;52.39;98882.81;4894361;29;20024;-74
2021/05/25 07:42:41;;;;;;;3.05;1.10;;;;;;;14.02;48.56;98878.91;4895433;29;20112;-74
2021/05/25 07:45:08;;;;;;;7.45;1.00;;;;;;;14.20;48.25;98876.63;4896437;29;20451;-74
2021/05/25 07:47:33;;;;;;;2.38;0.88;;;;;;;14.45;46.44;98877.56;4896411;29;20027;-73
2021/05/25 07:50:12;;;;;;;4.38;1.08;;;;;;;13.55;49.18;98888.97;4896389;29;20245;-75
2021/05/25 07:52:38;;;;;;;1.50;0.70;;;;;;;13.15;49.03;98889.19;4895749;29;20052;-71
2021/05/25 07:55:03;;;;;;;7.00;2.58;;;;;;;12.89;50.37;98887.25;4896376;29;20093;-71
2021/05/25 07:57:29;;;;;;;2.90;0.88;;;;;;;12.68;49.63;98895.59;4894708;29;20437;-71
2021/05/25 07:59:54;;;;;;;1.85;0.80;;;;;;;12.85;50.22;98896.00;4896480;29;20474;-71
2021/05/25 08:02:19;;;;;;;6.35;0.90;;;;;;;12.50;49.57;98909.88;4896342;29;20024;-71
2021/05/25 08:04:45;;;;;;;4.05;1.90;;;;;;;12.86;48.99;98901.19;4895398;29;20068;-71
2021/05/25 08:07:10;;;;;;;0.93;0.70;;;;;;;13.04;48.99;98902.44;4879292;29;20116;-71
2021/05/25 08:09:35;;;;;;;2.13;0.70;;;;;;;13.22;48.31;98900.31;4896359;29;20037;-71
2021/05/25 08:12:01;;;;;;;0.88;0.60;;;;;;;12.92;48.63;98900.19;4896283;29;20031;-71
2021/05/25 08:14:26;;;;;;;2.25;0.50;;;;;;;12.75;47.83;98910.13;4896143;29;20111;-71
2021/05/25 08:16:52;;;;;;;1.63;0.75;;;;;;;12.84;49.84;98909.91;4895270;29;20028;-75
2021/05/25 08:19:28;;;;;;;4.53;0.77;;;;;;;13.08;48.37;98919.69;4896221;29;20032;-75
2021/05/25 08:21:53;;;;;;;4.40;0.93;;;;;;;13.34;46.65;98919.06;4896210;29;20020;-75
2021/05/25 08:24:19;;;;;;;2.08;0.77;;;;;;;13.21;46.27;98924.59;4896151;29;20035;-75
2021/05/25 08:26:44;;;;;;;6.47;4.00;;;;;;;13.06;46.59;98947.50;4895303;29;20032;-75
2021/05/25 08:29:09;;;;;;;5.13;1.48;;;;;;;13.06;47.34;98926.69;4895906;29;20033;-74
2021/05/25 08:31:35;;;;;;;0.98;0.80;;;;;;;12.77;48.23;98934.38;4896099;29;20025;-74
2021/05/25 08:34:01;;;;;;;3.90;0.73;;;;;;;12.45;47.50;98938.56;4879270;29;20096;-75
2021/05/25 08:36:30;;;;;;;2.00;0.82;;;;;;;12.78;47.50;98939.53;4895989;29;20052;-75
2021/05/25 08:38:55;;;;;;;1.00;0.80;;;;;;;12.86;48.08;98945.41;4895208;29;20024;-75
2021/05/25 08:41:20;;;;;;;1.67;0.70;;;;;;;12.70;49.92;98943.19;4879271;29;20028;-75
2021/05/25 08:43:46;;;;;;;2.78;0.80;;;;;;;12.34;48.28;98956.16;4896021;29;20020;-75
2021/05/25 08:46:11;;;;;;;1.27;0.75;;;;;;;12.56;49.34;98951.31;4895656;29;20036;-75
2021/05/25 08:48:40;;;;;;;0.98;0.73;;;;;;;12.35;48.46;98955.25;4895666;29;20147;-75
2021/05/25 08:51:06;;;;;;;2.78;0.80;;;;;;;12.27;49.30;98959.75;4895087;29;20029;-75
2021/05/25 08:53:31;;;;;;;3.30;0.90;;;;;;;12.46;49.11;98966.25;4895033;29;20084;-75
2021/05/25 08:55:57;;;;;;;2.80;0.80;;;;;;;12.38;47.80;98963.00;4893456;29;20024;-75
2021/05/25 08:58:24;;;;;;;4.40;0.95;;;;;;;12.32;47.95;98968.31;4897331;29;20024;-75
2021/05/25 09:00:52;;;;;;;3.13;0.70;;;;;;;12.27;48.30;98970.16;4899608;29;20470;-75
2021/05/25 09:03:18;;;;;;;3.50;0.63;;;;;;;12.42;48.51;98969.81;4898842;29;20100;-70
2021/05/25 09:05:56;;;;;;;2.50;0.82;;;;;;;12.58;48.88;98986.78;4882450;29;20111;-70
2021/05/25 09:08:22;;;;;;;2.22;1.08;;;;;;;12.33;47.28;98970.91;4899465;29;20051;-71
2021/05/25 09:10:49;;;;;;;3.80;0.90;;;;;;;12.21;47.02;98970.31;4882591;29;20030;-70
2021/05/25 09:13:17;;;;;;;4.97;0.80;;;;;;;11.96;47.16;98993.34;4899017;29;20036;-70
2021/05/25 09:15:51;;;;;;;0.85;0.60;;;;;;;12.16;47.28;98992.91;4898216;29;20154;-71
2021/05/25 09:18:21;;;;;;;1.88;0.60;;;;;;;12.01;47.64;98992.34;4899192;29;20100;-70
2021/05/25 09:21:19;;;;;;;1.90;0.88;;;;;;;12.18;48.30;99001.53;4899324;29;20130;-70
2021/05/25 09:23:45;;;;;;;2.40;0.77;;;;;;;12.23;48.42;98994.50;4883137;29;20586;-71
2021/05/25 09:26:14;;;;;;;7.65;1.25;;;;;;;12.00;48.10;99003.63;4897769;29;20037;-70
2021/05/25 09:28:59;;;;;;;9.43;0.75;;;;;;;12.07;48.95;98994.81;4899380;29;20028;-70
2021/05/25 09:31:46;;;;;;;6.75;0.90;;;;;;;12.04;48.93;99000.09;4899030;29;20023;-71
2021/05/25 09:34:17;;;;;;;4.10;1.35;;;;;;;12.08;49.33;98996.53;4898526;29;20033;-71
2021/05/25 09:37:03;;;;;;;2.20;0.68;;;;;;;12.37;49.05;98997.66;4898139;29;20043;-71
2021/05/25 09:39:35;;;;;;;2.90;0.93;;;;;;;12.13;49.17;99009.41;4898959;29;20083;-71
2021/05/25 09:42:06;;;;;;;2.60;0.95;;;;;;;12.55;49.08;99012.84;4898726;29;20020;-71
2021/05/25 09:44:33;;;;;;;2.00;1.00;;;;;;;12.96;48.29;99000.66;4898875;29;20017;-71
2021/05/25 09:47:00;;;;;;;2.55;1.08;;;;;;;13.04;48.44;99009.09;4898463;29;20025;-71
2021/05/25 09:49:26;;;;;;;1.52;0.80;;;;;;;13.01;48.08;99016.16;4897933;29;20107;-71
2021/05/25 09:52:07;;;;;;;2.50;0.73;;;;;;;12.70;48.21;99021.19;4897992;29;20104;-71
2021/05/25 09:54:33;;;;;;;6.90;1.02;;;;;;;12.61;48.06;99017.03;4898703;29;20076;-70
2021/05/25 09:57:03;;;;;;;1.58;0.80;;;;;;;12.65;48.38;99023.03;4897279;29;20024;-71
2021/05/25 09:59:29;;;;;;;1.15;0.70;;;;;;;12.53;47.94;99024.19;4898359;29;20028;-70
2021/05/25 10:01:54;;;;;;;10.32;4.35;;;;;;;12.52;48.43;99022.44;4880647;29;20048;-71
2021/05/25 10:04:19;;;;;;;2.33;1.00;;;;;;;12.25;49.51;99034.28;4898622;29;20027;-70
2021/05/25 10:06:46;;;;;;;2.65;0.80;;;;;;;12.03;50.88;99039.91;4898200;29;20123;-71
2021/05/25 10:09:13;;;;;;;5.53;1.05;;;;;;;12.24;51.93;99037.78;4898191;29;20050;-71
2021/05/25 10:11:43;;;;;;;3.35;0.90;;;;;;;12.60;50.31;99041.34;4897700;29;20028;-70
2021/05/25 10:14:10;;;;;;;13.18;7.07;;;;;;;13.10;50.28;99035.00;4890672;29;20028;-71
2021/05/25 10:16:39;;;;;;;1.27;0.88;;;;;;;13.62;47.84;99031.09;4887945;29;20061;-70
2021/05/25 10:21:48;;;;;;;1.23;0.70;;;;;;;14.31;45.43;99025.72;4888429;29;20037;-71
2021/05/25 10:24:14;;;;;;;3.55;1.02;;;;;;;14.21;45.13;99025.13;4887153;29;20085;-71
2021/05/25 10:26:40;;;;;;;5.63;1.10;;;;;;;15.06;43.81;99021.69;4887263;29;20128;-71
2021/05/25 10:29:06;;;;;;;1.75;0.90;;;;;;;15.08;44.22;99027.72;4889134;29;20715;-74
2021/05/25 10:31:37;;;;;;;4.20;1.00;;;;;;;14.82;43.62;99025.94;4887771;29;20132;-74
2021/05/25 10:34:12;;;;;;;3.38;1.65;;;;;;;14.78;43.23;99031.28;4886418;29;20040;-73
2021/05/25 10:36:54;;;;;;;4.63;0.93;;;;;;;14.67;43.81;99030.78;4886560;29;20512;-73
2021/05/25 10:39:39;;;;;;;4.45;1.35;;;;;;;14.56;42.13;99024.16;4886486;29;20033;-74
2021/05/25 10:42:19;;;;;;;3.10;1.00;;;;;;;15.07;43.63;99028.63;4887665;29;20032;-72
2021/05/25 10:44:47;;;;;;;7.18;1.00;;;;;;;14.93;41.46;99017.78;4886938;29;20039;-74
2021/05/25 10:47:26;;;;;;;3.55;1.05;;;;;;;14.35;42.69;99011.69;4884764;29;20032;-74
2021/05/25 10:52:52;;;;;;;1.77;0.70;;;;;;;13.25;45.49;99030.34;4877589;29;20033;-74
2021/05/25 10:55:30;;;;;;;7.53;1.40;;;;;;;13.19;46.42;99046.03;4887359;29;20036;-74
2021/05/25 10:57:56;;;;;;;2.58;0.68;;;;;;;12.28;56.91;99065.41;4886042;29;20119;-73
2021/05/25 11:00:28;;;;;;;2.28;1.02;;;;;;;11.22;62.92;99084.59;4885756;29;20494;-73
2021/05/25 11:02:59;;;;;;;4.75;1.15;;;;;;;10.67;64.56;99075.00;4886371;29;20120;-73
2021/05/25 11:05:28;;;;;;;4.05;1.38;;;;;;;11.32;65.19;99079.25;4870101;29;20036;-73
2021/05/25 11:08:14;;;;;;;2.13;1.25;;;;;;;11.38;66.41;99090.41;4887442;29;20033;-74
2021/05/25 11:10:43;;;;;;;3.42;1.08;;;;;;;11.61;66.80;99095.22;4885644;29;20067;-74
2021/05/25 11:13:18;;;;;;;2.13;0.95;;;;;;;11.40;65.68;99089.47;4887920;29;20029;-74
2021/05/25 11:16:02;;;;;;;4.18;1.00;;;;;;;11.94;64.41;99075.59;4887449;29;20036;-74
2021/05/25 11:18:34;;;;;;;3.17;1.17;;;;;;;11.65;65.19;99079.53;4886072;29;20517;-73
2021/05/25 11:21:30;;;;;;;6.38;1.73;;;;;;;11.67;67.93;99084.72;4886655;29;20036;-74
2021/05/25 11:23:50;;;;;;;2.88;1.40;;;;;;;12.24;66.61;99066.38;4885878;29;20045;-74
2021/05/25 11:26:55;;;;;;;5.60;1.30;;;;;;;12.52;65.69;99061.44;4886385;29;20096;-74
2021/05/25 11:29:26;;;;;;;5.03;1.50;;;;;;;12.71;64.58;99064.50;4885183;29;20036;-74
2021/05/25 11:31:52;;;;;;;2.58;1.20;;;;;;;12.39;62.04;99066.06;4886586;29;20032;-73
2021/05/25 11:34:21;;;;;;;4.63;1.92;;;;;;;11.97;65.27;99071.19;4885989;29;20039;-74
2021/05/25 11:36:53;;;;;;;2.13;0.98;;;;;;;11.81;66.32;99087.91;4885924;29;20111;-74
2021/05/25 11:39:19;;;;;;;2.63;0.80;;;;;;;11.15;67.69;99125.31;4862238;29;20067;-74
2021/05/25 11:41:44;;;;;;;2.70;1.10;;;;;;;10.12;75.47;99148.19;4886314;29;20028;-73
2021/05/25 11:44:11;;;;;;;5.03;1.52;;;;;;;9.65;76.89;99142.56;4886674;29;20040;-74
2021/05/25 11:46:43;;;;;;;2.92;1.35;;;;;;;9.61;77.35;99119.31;4886744;29;20032;-74
2021/05/25 11:49:10;;;;;;;2.85;1.20;;;;;;;10.76;73.42;99116.38;4886618;29;20397;-74
2021/05/25 11:51:37;;;;;;;3.58;1.50;;;;;;;12.96;70.81;99107.28;4885109;29;20151;-74
2021/05/25 11:54:18;;;;;;;8.90;1.27;;;;;;;14.09;68.90;99090.63;4887382;29;20715;-74
2021/05/25 11:56:49;;;;;;;2.42;0.82;;;;;;;14.35;62.17;99090.75;4884376;29;20111;-74
2021/05/25 11:59:18;;;;;;;16.35;2.40;;;;;;;13.90;63.58;99092.88;4886895;29;20032;-74
2021/05/25 12:01:44;;;;;;;6.10;1.15;;;;;;;13.88;62.83;99086.88;4885468;29;20409;-74
2021/05/25 12:04:10;;;;;;;31.00;2.42;;;;;;;14.17;63.00;99085.19;4886681;29;20036;-73
2021/05/25 12:07:05;;;;;;;7.88;1.15;;;;;;;14.46;59.60;99074.81;4885015;29;20037;-74
2021/05/25 12:09:30;;;;;;;1.55;1.10;;;;;;;13.54;63.42;99077.31;4872823;29;20159;-74
2021/05/25 12:11:58;;;;;;;1.63;0.88;;;;;;;13.69;58.56;99067.41;4885531;29;20120;-74
2021/05/25 12:14:32;;;;;;;3.53;1.00;;;;;;;14.29;56.95;99058.81;4869612;29;20043;-74
2021/05/25 12:16:59;;;;;;;1.40;0.70;;;;;;;14.54;55.41;99064.19;4885257;29;20029;-74
2021/05/25 12:19:26;;;;;;;7.13;4.20;;;;;;;14.60;54.57;99056.19;4866476;29;20123;-74
2021/05/25 12:22:06;;;;;;;2.03;0.73;;;;;;;14.15;55.02;99072.22;4886231;29;20043;-74
2021/05/25 12:24:34;;;;;;;4.63;0.80;;;;;;;14.20;54.56;99064.28;4886418;29;20033;-74
2021/05/25 12:27:00;;;;;;;2.40;1.10;;;;;;;15.04;52.25;99060.06;4885749;29;20085;-74
2021/05/25 12:29:26;;;;;;;1.92;1.02;;;;;;;14.87;50.61;99065.78;4884498;29;20029;-74
2021/05/25 12:31:55;;;;;;;3.90;1.00;;;;;;;15.21;48.81;99064.72;4883932;29;20031;-74
2021/05/25 12:34:21;;;;;;;2.08;1.00;;;;;;;14.56;47.95;99063.25;4886217;29;20040;-74
2021/05/25 12:36:54;;;;;;;1.75;0.75;;;;;;;14.45;46.76;99069.63;4885469;29;20031;-74
2021/05/25 12:39:33;;;;;;;4.82;0.90;;;;;;;15.06;46.48;99071.28;4886231;29;20242;-74
2021/05/25 12:41:59;;;;;;;6.28;1.00;;;;;;;15.71;43.88;99051.75;4869326;29;20122;-74
2021/05/25 12:44:30;;;;;;;3.60;0.98;;;;;;;15.60;43.57;99056.47;4885258;29;20028;-74
2021/05/25 12:47:02;;;;;;;2.70;0.80;;;;;;;14.72;43.73;99054.97;4885870;29;20032;-74
2021/05/25 12:49:28;;;;;;;5.28;0.93;;;;;;;14.84;45.03;99063.28;4885104;29;20052;-74
2021/05/25 12:52:34;;;;;;;1.52;0.70;;;;;;;15.07;43.61;99052.09;4886782;29;20036;-73
2021/05/25 12:55:08;;;;;;;7.50;4.85;;;;;;;15.21;45.17;99067.34;4883984;29;20041;-75
2021/05/25 12:57:50;;;;;;;3.90;1.10;;;;;;;14.99;43.47;99067.19;4885878;29;20036;-74
2021/05/25 13:00:25;;;;;;;9.18;1.73;;;;;;;15.26;43.69;99065.44;4885173;29;20029;-74
2021/05/25 13:02:51;;;;;;;27.13;3.10;;;;;;;15.49;41.92;99051.63;4886449;29;20700;-71
2021/05/25 13:05:27;;;;;;;17.50;1.80;;;;;;;15.93;43.86;99041.44;4884183;29;20029;-72
2021/05/25 13:07:57;;;;;;;7.38;2.35;;;;;;;15.89;42.08;99043.28;4883747;29;20194;-72
2021/05/25 13:13:13;;;;;;;6.38;0.80;;;;;;;15.29;44.27;99056.66;4885155;29;20047;-71
2021/05/25 13:15:42;;;;;;;2.05;1.17;;;;;;;14.96;42.08;99056.81;4882322;29;20486;-71
2021/05/25 13:18:10;;;;;;;3.50;0.80;;;;;;;14.97;42.11;99063.75;4884406;29;20029;-72
2021/05/25 13:20:36;;;;;;;2.00;0.90;;;;;;;15.12;42.22;99063.25;4884582;29;20032;-72
2021/05/25 13:23:01;;;;;;;3.10;0.80;;;;;;;15.25;41.19;99068.09;4885957;29;20054;-72
2021/05/25 13:25:32;;;;;;;6.43;1.20;;;;;;;15.42;41.30;99071.00;4884446;29;20036;-72
2021/05/25 13:27:58;;;;;;;3.45;1.73;;;;;;;15.53;41.63;99053.22;4885912;29;20084;-72
2021/05/25 13:30:42;;;;;;;4.43;1.17;;;;;;;15.10;39.87;99065.06;4881752;29;20058;-72
2021/05/25 13:33:07;;;;;;;10.32;1.15;;;;;;;15.61;41.78;99059.03;4885468;29;20115;-72
2021/05/25 13:35:32;;;;;;;1.63;0.95;;;;;;;15.67;39.99;99050.19;4881926;29;20023;-72
2021/05/25 13:37:58;;;;;;;7.88;0.88;;;;;;;15.46;39.98;99072.59;4882955;29;20040;-72
2021/05/25 13:40:23;;;;;;;2.33;1.00;;;;;;;15.41;39.24;99048.41;4882047;29;20032;-71
2021/05/25 13:42:49;;;;;;;1.23;0.50;;;;;;;15.57;38.99;99044.41;4883818;29;20032;-71
2021/05/25 13:45:15;;;;;;;13.45;7.35;;;;;;;15.74;39.68;99046.44;4886127;29;20500;-72
2021/05/25 13:47:40;;;;;;;1.20;0.70;;;;;;;16.42;38.61;99044.88;4886610;29;20032;-71
2021/05/25 13:50:22;;;;;;;1.60;0.82;;;;;;;15.75;39.00;99047.28;4887123;29;20451;-71
2021/05/25 13:52:48;;;;;;;1.40;0.73;;;;;;;15.83;39.69;99037.44;4887360;29;20032;-71
2021/05/25 13:55:13;;;;;;;6.57;0.75;;;;;;;15.78;39.48;99036.75;4889151;29;20032;-72
2021/05/25 13:57:41;;;;;;;2.92;1.15;;;;;;;16.54;39.48;99033.09;4886711;29;20439;-71
2021/05/25 14:00:13;;;;;;;0.50;0.50;;;;;;;17.04;38.45;99023.28;4887714;29;20036;-74
2021/05/25 14:02:38;;;;;;;2.92;1.02;;;;;;;17.12;37.33;99012.53;4888528;29;20320;-75
2021/05/25 14:05:04;;;;;;;1.60;0.80;;;;;;;17.30;37.90;99013.50;4886635;29;20067;-74
2021/05/25 14:07:31;;;;;;;2.80;0.75;;;;;;;16.88;38.39;99019.59;4887412;29;20028;-72
2021/05/25 14:09:57;;;;;;;1.17;0.60;;;;;;;16.39;37.14;99008.34;4886024;29;20125;-70
2021/05/25 14:12:22;;;;;;;3.95;2.10;;;;;;;16.05;38.61;99020.09;4888416;29;20402;-71
2021/05/25 14:14:47;;;;;;;2.60;0.90;;;;;;;15.96;39.72;99012.59;4888593;29;20493;-72
2021/05/25 14:17:13;;;;;;;4.93;0.90;;;;;;;15.76;39.87;99023.75;4885034;29;20510;-72
2021/05/25 14:19:38;;;;;;;2.15;0.80;;;;;;;15.68;39.32;99018.78;4885646;29;20036;-72
2021/05/25 14:22:03;;;;;;;1.65;0.70;;;;;;;15.63;40.42;99012.88;4888495;29;20032;-72
2021/05/25 14:24:29;;;;;;;2.83;0.70;;;;;;;15.86;38.78;99025.13;4887908;29;20119;-72
2021/05/25 14:26:54;;;;;;;4.97;0.98;;;;;;;15.79;40.14;99028.00;4886455;29;20177;-71
2021/05/25 14:29:19;;;;;;;2.97;0.70;;;;;;;15.51;39.67;99018.47;4886042;29;20055;-71
2021/05/25 14:31:45;;;;;;;2.92;0.93;;;;;;;15.97;38.91;99016.03;4886730;29;20398;-72
2021/05/25 14:34:10;;;;;;;3.80;0.60;;;;;;;16.36;39.02;99013.72;4870599;29;20032;-72
2021/05/25 14:36:36;;;;;;;4.93;1.10;;;;;;;16.84;38.53;99011.00;4894961;29;20055;-72
2021/05/25 14:39:03;;;;;;;5.72;1.08;;;;;;;17.38;36.04;99000.97;4908862;29;20078;-71
2021/05/25 14:41:29;;;;;;;2.38;0.90;;;;;;;17.24;36.35;99004.16;4904524;29;20039;-72
2021/05/25 14:43:54;;;;;;;3.90;0.73;;;;;;;16.97;36.69;99003.53;4903064;29;20490;-72
2021/05/25 14:46:19;;;;;;;2.72;0.80;;;;;;;16.60;37.29;99002.31;4902273;29;20033;-72
2021/05/25 14:48:45;;;;;;;1.40;0.70;;;;;;;17.15;37.14;98994.03;4905400;29;20023;-75
2021/05/25 14:51:10;;;;;;;13.05;6.55;;;;;;;17.14;38.24;98993.19;4904864;29;20064;-71
2021/05/25 14:53:44;;;;;;;5.65;0.82;;;;;;;16.58;36.71;98996.28;4902368;29;20032;-72
2021/05/25 14:56:14;;;;;;;1.92;0.80;;;;;;;17.04;36.00;98985.78;4904456;29;20028;-72
2021/05/25 14:58:43;;;;;;;2.70;0.88;;;;;;;16.95;36.59;98989.63;4906067;29;20036;-71
2021/05/25 15:01:12;;;;;;;3.50;0.80;;;;;;;17.07;36.16;98990.91;4907776;29;20088;-72
2021/05/25 15:03:49;;;;;;;3.40;1.48;;;;;;;16.84;35.71;98981.38;4905531;29;21063;-72
2021/05/25 15:06:22;;;;;;;2.25;0.85;;;;;;;17.35;36.02;98980.97;4904811;29;20039;-72
2021/05/25 15:11:14;;;;;;;6.63;4.95;;;;;;;17.47;33.36;98974.38;4904431;29;20028;-72
2021/05/25 15:13:39;;;;;;;1.77;0.77;;;;;;;16.92;34.04;98971.41;4906066;29;20235;-71
2021/05/25 15:16:08;;;;;;;3.55;0.70;;;;;;;16.87;34.19;98973.38;4904729;29;20036;-71
2021/05/25 15:18:34;;;;;;;2.85;0.68;;;;;;;16.87;34.50;98976.00;4906727;29;20079;-71
2021/05/25 15:20:59;;;;;;;4.47;0.80;;;;;;;16.99;34.89;98972.88;4906367;29;20036;-71
2021/05/25 15:23:25;;;;;;;4.22;1.42;;;;;;;16.21;35.36;98975.09;4905584;29;20040;-73
2021/05/25 15:25:50;;;;;;;17.45;12.15;;;;;;;16.13;36.81;98970.97;4906032;29;20028;-70
2021/05/25 15:28:15;;;;;;;1.75;0.90;;;;;;;15.97;36.97;98969.84;4905605;29;20070;-72
2021/05/25 15:30:46;;;;;;;4.18;0.95;;;;;;;15.91;36.92;98964.84;4904968;29;20055;-72
2021/05/25 15:33:12;;;;;;;2.05;0.70;;;;;;;15.82;36.31;98965.19;4904725;29;20044;-72
2021/05/25 15:35:37;;;;;;;1.77;0.73;;;;;;;15.72;36.62;98966.44;4906494;29;20028;-72
2021/05/25 15:38:04;;;;;;;3.45;1.00;;;;;;;16.02;36.87;98960.09;4906702;29;20040;-71
2021/05/25 15:40:34;;;;;;;4.30;0.80;;;;;;;16.22;36.63;98963.72;4907150;29;20032;-71
2021/05/25 15:42:59;;;;;;;3.42;1.35;;;;;;;16.10;35.50;98965.88;4903286;29;20024;-71
2021/05/25 15:45:25;;;;;;;3.45;0.95;;;;;;;15.67;35.72;98962.22;4906371;29;20571;-72
2021/05/25 15:47:51;;;;;;;2.83;0.90;;;;;;;15.50;36.13;98959.31;4903877;29;20406;-71
2021/05/25 15:50:29;;;;;;;0.90;0.70;;;;;;;15.66;36.31;98970.97;4905960;29;20321;-71
2021/05/25 15:53:00;;;;;;;0.98;0.68;;;;;;;16.28;34.69;98955.63;4904327;29;20035;-71
2021/05/25 15:55:27;;;;;;;2.95;1.00;;;;;;;16.20;34.37;98971.63;4906239;29;20029;-71
2021/05/25 15:57:54;;;;;;;2.88;0.90;;;;;;;16.31;33.99;98963.38;4906377;29;20074;-75
2021/05/25 16:00:21;;;;;;;1.40;0.85;;;;;;;16.54;33.98;98960.72;4905320;29;20032;-75
2021/05/25 16:02:47;;;;;;;4.95;2.20;;;;;;;16.32;34.60;98965.06;4906302;29;20028;-75
2021/05/25 16:05:12;;;;;;;2.28;0.73;;;;;;;16.01;35.85;98974.06;4905275;29;20726;-76